sensor_id;sensor_type;location;lat;lon;timestamp;P1;durP1;ratioP1;P2;durP2;ratioP2
4825;SDS011;2427;50.934;6.776;2023-08-21T00:00:59;10.47;;;4.60;;
4825;SDS011;2427;50.934;6.776;2023-08-21T00:03:25;6.27;;;4.07;;
4825;SDS011;2427;50.934;6.776;2023-08-21T00:05:51;12.07;;;4.03;;
4825;SDS011;2427;50.934;6.776;2023-08-21T00:08:16;7.17;;;4.80;;
4825;SDS011;2427;50.934;6.776;2023-08-21T00:10:42;6.13;;;4.37;;
4825;SDS011;2427;50.934;6.776;2023-08-21T00:13:07;6.30;;;4.67;;
4825;SDS011;2427;50.934;6.776;2023-08-21T00:15:33;4.87;;;4.37;;
4825;SDS011;2427;50.934;6.776;2023-08-21T00:17:58;6.27;;;4.80;;
4825;SDS011;2427;50.934;6.776;2023-08-21T00:20:25;8.77;;;5.00;;
4825;SDS011;2427;50.934;6.776;2023-08-21T00:22:51;5.93;;;4.03;;
4825;SDS011;2427;50.934;6.776;2023-08-21T00:25:17;4.70;;;4.13;;
4825;SDS011;2427;50.934;6.776;2023-08-21T00:27:42;5.50;;;5.00;;
4825;SDS011;2427;50.934;6.776;2023-08-21T00:30:08;6.10;;;4.80;;
4825;SDS011;2427;50.934;6.776;2023-08-21T00:32:34;9.77;;;4.87;;
4825;SDS011;2427;50.934;6.776;2023-08-21T00:35:00;10.67;;;5.07;;
4825;SDS011;2427;50.934;6.776;2023-08-21T00:37:26;8.60;;;4.60;;
4825;SDS011;2427;50.934;6.776;2023-08-21T00:39:51;4.97;;;4.43;;
4825;SDS011;2427;50.934;6.776;2023-08-21T00:42:17;5.67;;;3.93;;
4825;SDS011;2427;50.934;6.776;2023-08-21T00:44:42;6.40;;;4.73;;
4825;SDS011;2427;50.934;6.776;2023-08-21T00:47:08;8.90;;;5.27;;
4825;SDS011;2427;50.934;6.776;2023-08-21T00:49:33;7.93;;;5.10;;
4825;SDS011;2427;50.934;6.776;2023-08-21T00:51:59;7.63;;;5.27;;
4825;SDS011;2427;50.934;6.776;2023-08-21T00:54:26;5.57;;;4.80;;
4825;SDS011;2427;50.934;6.776;2023-08-21T00:56:51;6.67;;;3.93;;
4825;SDS011;2427;50.934;6.776;2023-08-21T00:59:18;8.87;;;4.90;;
4825;SDS011;2427;50.934;6.776;2023-08-21T01:12:08;8.70;;;4.70;;
4825;SDS011;2427;50.934;6.776;2023-08-21T01:17:26;9.20;;;4.73;;
4825;SDS011;2427;50.934;6.776;2023-08-21T01:19:54;4.90;;;4.23;;
4825;SDS011;2427;50.934;6.776;2023-08-21T01:22:20;7.47;;;4.27;;
4825;SDS011;2427;50.934;6.776;2023-08-21T01:24:50;4.60;;;4.20;;
4825;SDS011;2427;50.934;6.776;2023-08-21T01:27:15;7.77;;;4.37;;
4825;SDS011;2427;50.934;6.776;2023-08-21T01:29:41;6.27;;;3.87;;
4825;SDS011;2427;50.934;6.776;2023-08-21T01:32:45;5.93;;;4.40;;
4825;SDS011;2427;50.934;6.776;2023-08-21T01:35:12;5.90;;;3.70;;
4825;SDS011;2427;50.934;6.776;2023-08-21T01:37:39;6.60;;;4.23;;
4825;SDS011;2427;50.934;6.776;2023-08-21T01:40:05;6.17;;;4.20;;
4825;SDS011;2427;50.934;6.776;2023-08-21T01:42:31;6.63;;;4.20;;
4825;SDS011;2427;50.934;6.776;2023-08-21T01:44:56;5.90;;;4.30;;
4825;SDS011;2427;50.934;6.776;2023-08-21T01:47:22;5.00;;;4.40;;
4825;SDS011;2427;50.934;6.776;2023-08-21T01:49:48;6.60;;;4.83;;
4825;SDS011;2427;50.934;6.776;2023-08-21T01:52:17;4.90;;;4.40;;
4825;SDS011;2427;50.934;6.776;2023-08-21T01:54:43;5.17;;;4.07;;
4825;SDS011;2427;50.934;6.776;2023-08-21T01:57:09;7.17;;;4.20;;
4825;SDS011;2427;50.934;6.776;2023-08-21T01:59:34;5.20;;;3.30;;
4825;SDS011;2427;50.934;6.776;2023-08-21T02:02:00;5.53;;;4.37;;
4825;SDS011;2427;50.934;6.776;2023-08-21T02:04:25;5.50;;;3.60;;
4825;SDS011;2427;50.934;6.776;2023-08-21T02:06:51;5.10;;;3.90;;
4825;SDS011;2427;50.934;6.776;2023-08-21T02:09:16;8.90;;;3.50;;
4825;SDS011;2427;50.934;6.776;2023-08-21T02:11:42;10.10;;;3.20;;
4825;SDS011;2427;50.934;6.776;2023-08-21T02:14:07;3.57;;;3.10;;
4825;SDS011;2427;50.934;6.776;2023-08-21T02:16:33;4.83;;;3.00;;
4825;SDS011;2427;50.934;6.776;2023-08-21T02:18:59;7.43;;;3.20;;
4825;SDS011;2427;50.934;6.776;2023-08-21T02:21:24;3.53;;;3.03;;
4825;SDS011;2427;50.934;6.776;2023-08-21T02:23:50;7.13;;;2.87;;
4825;SDS011;2427;50.934;6.776;2023-08-21T02:26:15;9.93;;;3.33;;
4825;SDS011;2427;50.934;6.776;2023-08-21T02:28:41;6.67;;;3.03;;
4825;SDS011;2427;50.934;6.776;2023-08-21T02:31:09;7.17;;;3.20;;
4825;SDS011;2427;50.934;6.776;2023-08-21T02:33:35;4.20;;;2.70;;
4825;SDS011;2427;50.934;6.776;2023-08-21T02:36:00;7.60;;;2.97;;
4825;SDS011;2427;50.934;6.776;2023-08-21T02:38:28;6.53;;;3.80;;
4825;SDS011;2427;50.934;6.776;2023-08-21T02:40:54;3.70;;;2.30;;
4825;SDS011;2427;50.934;6.776;2023-08-21T02:43:19;8.90;;;2.40;;
4825;SDS011;2427;50.934;6.776;2023-08-21T02:45:45;7.73;;;2.77;;
4825;SDS011;2427;50.934;6.776;2023-08-21T02:48:11;9.03;;;3.03;;
4825;SDS011;2427;50.934;6.776;2023-08-21T02:50:37;5.33;;;2.70;;
4825;SDS011;2427;50.934;6.776;2023-08-21T02:53:02;3.67;;;2.60;;
4825;SDS011;2427;50.934;6.776;2023-08-21T02:55:29;3.43;;;2.60;;
4825;SDS011;2427;50.934;6.776;2023-08-21T02:57:54;4.70;;;3.07;;
4825;SDS011;2427;50.934;6.776;2023-08-21T03:00:20;6.30;;;2.63;;
4825;SDS011;2427;50.934;6.776;2023-08-21T03:02:45;5.47;;;2.60;;
4825;SDS011;2427;50.934;6.776;2023-08-21T03:05:11;3.00;;;2.53;;
4825;SDS011;2427;50.934;6.776;2023-08-21T03:07:38;5.70;;;2.70;;
4825;SDS011;2427;50.934;6.776;2023-08-21T03:10:04;9.13;;;2.60;;
4825;SDS011;2427;50.934;6.776;2023-08-21T03:12:31;2.50;;;2.30;;
4825;SDS011;2427;50.934;6.776;2023-08-21T03:14:56;3.10;;;2.30;;
4825;SDS011;2427;50.934;6.776;2023-08-21T03:17:22;4.00;;;2.33;;
4825;SDS011;2427;50.934;6.776;2023-08-21T03:19:49;3.57;;;2.20;;
4825;SDS011;2427;50.934;6.776;2023-08-21T03:22:14;4.97;;;2.50;;
4825;SDS011;2427;50.934;6.776;2023-08-21T03:24:40;4.17;;;2.13;;
4825;SDS011;2427;50.934;6.776;2023-08-21T03:27:06;5.97;;;2.60;;
4825;SDS011;2427;50.934;6.776;2023-08-21T03:29:34;4.27;;;3.33;;
4825;SDS011;2427;50.934;6.776;2023-08-21T03:31:59;6.67;;;2.70;;
4825;SDS011;2427;50.934;6.776;2023-08-21T03:34:25;4.10;;;2.27;;
4825;SDS011;2427;50.934;6.776;2023-08-21T03:36:51;3.90;;;2.30;;
4825;SDS011;2427;50.934;6.776;2023-08-21T03:39:16;6.83;;;2.80;;
4825;SDS011;2427;50.934;6.776;2023-08-21T03:41:42;5.23;;;2.80;;
4825;SDS011;2427;50.934;6.776;2023-08-21T03:44:07;7.27;;;2.70;;
4825;SDS011;2427;50.934;6.776;2023-08-21T03:46:33;4.10;;;2.50;;
4825;SDS011;2427;50.934;6.776;2023-08-21T03:48:58;3.40;;;2.20;;
4825;SDS011;2427;50.934;6.776;2023-08-21T03:51:24;7.20;;;2.60;;
4825;SDS011;2427;50.934;6.776;2023-08-21T03:53:50;6.93;;;2.73;;
4825;SDS011;2427;50.934;6.776;2023-08-21T03:56:15;4.70;;;2.30;;
4825;SDS011;2427;50.934;6.776;2023-08-21T03:58:41;4.63;;;3.00;;
4825;SDS011;2427;50.934;6.776;2023-08-21T04:01:06;4.90;;;2.80;;
4825;SDS011;2427;50.934;6.776;2023-08-21T04:03:32;5.50;;;2.43;;
4825;SDS011;2427;50.934;6.776;2023-08-21T04:05:58;4.37;;;2.07;;
4825;SDS011;2427;50.934;6.776;2023-08-21T04:08:24;5.37;;;2.20;;
4825;SDS011;2427;50.934;6.776;2023-08-21T04:10:50;3.53;;;2.13;;
4825;SDS011;2427;50.934;6.776;2023-08-21T04:13:17;6.40;;;2.90;;
4825;SDS011;2427;50.934;6.776;2023-08-21T04:15:46;3.10;;;2.80;;
4825;SDS011;2427;50.934;6.776;2023-08-21T04:18:13;3.83;;;2.67;;
4825;SDS011;2427;50.934;6.776;2023-08-21T04:20:38;4.63;;;2.90;;
4825;SDS011;2427;50.934;6.776;2023-08-21T04:23:04;5.63;;;2.73;;
4825;SDS011;2427;50.934;6.776;2023-08-21T04:25:29;8.63;;;3.20;;
4825;SDS011;2427;50.934;6.776;2023-08-21T04:27:55;4.67;;;3.30;;
4825;SDS011;2427;50.934;6.776;2023-08-21T04:30:20;5.00;;;3.40;;
4825;SDS011;2427;50.934;6.776;2023-08-21T04:32:47;2.70;;;2.30;;
4825;SDS011;2427;50.934;6.776;2023-08-21T04:35:12;2.77;;;2.47;;
4825;SDS011;2427;50.934;6.776;2023-08-21T04:37:42;7.43;;;3.00;;
4825;SDS011;2427;50.934;6.776;2023-08-21T04:40:12;5.27;;;3.23;;
4825;SDS011;2427;50.934;6.776;2023-08-21T04:42:38;5.20;;;3.00;;
4825;SDS011;2427;50.934;6.776;2023-08-21T04:45:03;4.50;;;3.10;;
4825;SDS011;2427;50.934;6.776;2023-08-21T04:47:30;6.20;;;2.90;;
4825;SDS011;2427;50.934;6.776;2023-08-21T04:49:56;4.90;;;2.57;;
4825;SDS011;2427;50.934;6.776;2023-08-21T04:52:23;3.60;;;3.07;;
4825;SDS011;2427;50.934;6.776;2023-08-21T04:54:49;6.37;;;3.10;;
4825;SDS011;2427;50.934;6.776;2023-08-21T04:57:15;3.80;;;2.53;;
4825;SDS011;2427;50.934;6.776;2023-08-21T04:59:42;4.50;;;2.80;;
4825;SDS011;2427;50.934;6.776;2023-08-21T05:02:08;5.93;;;3.40;;
4825;SDS011;2427;50.934;6.776;2023-08-21T05:04:35;5.17;;;3.53;;
4825;SDS011;2427;50.934;6.776;2023-08-21T05:07:01;4.13;;;2.80;;
4825;SDS011;2427;50.934;6.776;2023-08-21T05:09:27;10.30;;;3.80;;
4825;SDS011;2427;50.934;6.776;2023-08-21T05:11:53;6.37;;;3.37;;
4825;SDS011;2427;50.934;6.776;2023-08-21T05:14:19;6.20;;;3.30;;
4825;SDS011;2427;50.934;6.776;2023-08-21T05:16:45;6.77;;;3.43;;
4825;SDS011;2427;50.934;6.776;2023-08-21T05:19:11;6.17;;;4.13;;
4825;SDS011;2427;50.934;6.776;2023-08-21T05:21:37;7.17;;;3.73;;
4825;SDS011;2427;50.934;6.776;2023-08-21T05:24:03;7.03;;;3.90;;
4825;SDS011;2427;50.934;6.776;2023-08-21T05:26:28;6.17;;;4.33;;
4825;SDS011;2427;50.934;6.776;2023-08-21T05:28:54;6.40;;;4.23;;
4825;SDS011;2427;50.934;6.776;2023-08-21T05:31:19;6.43;;;3.63;;
4825;SDS011;2427;50.934;6.776;2023-08-21T05:33:45;8.47;;;4.23;;
4825;SDS011;2427;50.934;6.776;2023-08-21T05:36:10;6.20;;;3.80;;
4825;SDS011;2427;50.934;6.776;2023-08-21T05:38:36;8.80;;;3.53;;
4825;SDS011;2427;50.934;6.776;2023-08-21T05:41:02;5.60;;;3.80;;
4825;SDS011;2427;50.934;6.776;2023-08-21T05:43:27;7.37;;;4.03;;
4825;SDS011;2427;50.934;6.776;2023-08-21T05:45:53;3.80;;;3.43;;
4825;SDS011;2427;50.934;6.776;2023-08-21T05:48:19;4.50;;;3.87;;
4825;SDS011;2427;50.934;6.776;2023-08-21T05:50:44;4.70;;;3.60;;
4825;SDS011;2427;50.934;6.776;2023-08-21T05:53:15;5.70;;;4.63;;
4825;SDS011;2427;50.934;6.776;2023-08-21T05:55:40;7.50;;;3.93;;
4825;SDS011;2427;50.934;6.776;2023-08-21T05:58:06;12.80;;;4.67;;
4825;SDS011;2427;50.934;6.776;2023-08-21T06:00:33;8.20;;;4.73;;
4825;SDS011;2427;50.934;6.776;2023-08-21T06:02:59;5.80;;;4.70;;
4825;SDS011;2427;50.934;6.776;2023-08-21T06:05:25;6.00;;;4.07;;
4825;SDS011;2427;50.934;6.776;2023-08-21T06:07:50;5.00;;;3.67;;
4825;SDS011;2427;50.934;6.776;2023-08-21T06:10:16;5.40;;;3.60;;
4825;SDS011;2427;50.934;6.776;2023-08-21T06:12:42;12.13;;;4.60;;
4825;SDS011;2427;50.934;6.776;2023-08-21T06:15:08;6.00;;;3.43;;
4825;SDS011;2427;50.934;6.776;2023-08-21T06:17:34;4.17;;;3.07;;
4825;SDS011;2427;50.934;6.776;2023-08-21T06:20:01;4.10;;;3.30;;
4825;SDS011;2427;50.934;6.776;2023-08-21T06:22:29;4.90;;;3.27;;
4825;SDS011;2427;50.934;6.776;2023-08-21T06:24:54;8.30;;;4.10;;
4825;SDS011;2427;50.934;6.776;2023-08-21T06:27:20;8.10;;;3.70;;
4825;SDS011;2427;50.934;6.776;2023-08-21T06:29:46;6.50;;;4.07;;
4825;SDS011;2427;50.934;6.776;2023-08-21T06:32:11;4.13;;;3.30;;
4825;SDS011;2427;50.934;6.776;2023-08-21T06:34:37;7.30;;;4.00;;
4825;SDS011;2427;50.934;6.776;2023-08-21T06:37:02;14.53;;;5.10;;
4825;SDS011;2427;50.934;6.776;2023-08-21T06:39:28;7.90;;;4.07;;
4825;SDS011;2427;50.934;6.776;2023-08-21T06:41:53;8.17;;;3.90;;
4825;SDS011;2427;50.934;6.776;2023-08-21T06:44:20;8.90;;;3.90;;
4825;SDS011;2427;50.934;6.776;2023-08-21T06:46:45;8.17;;;4.60;;
4825;SDS011;2427;50.934;6.776;2023-08-21T06:49:11;11.30;;;4.50;;
4825;SDS011;2427;50.934;6.776;2023-08-21T06:51:36;3.83;;;3.43;;
4825;SDS011;2427;50.934;6.776;2023-08-21T06:54:02;12.83;;;4.90;;
4825;SDS011;2427;50.934;6.776;2023-08-21T06:56:27;10.33;;;5.90;;
4825;SDS011;2427;50.934;6.776;2023-08-21T06:58:53;10.33;;;5.13;;
4825;SDS011;2427;50.934;6.776;2023-08-21T07:01:20;4.60;;;4.17;;
4825;SDS011;2427;50.934;6.776;2023-08-21T07:03:46;8.50;;;4.53;;
4825;SDS011;2427;50.934;6.776;2023-08-21T07:06:11;9.10;;;4.40;;
4825;SDS011;2427;50.934;6.776;2023-08-21T07:08:37;8.50;;;4.80;;
4825;SDS011;2427;50.934;6.776;2023-08-21T07:11:05;10.90;;;4.63;;
4825;SDS011;2427;50.934;6.776;2023-08-21T07:13:32;9.50;;;4.60;;
4825;SDS011;2427;50.934;6.776;2023-08-21T07:15:58;6.93;;;4.83;;
4825;SDS011;2427;50.934;6.776;2023-08-21T07:18:27;11.07;;;4.40;;
4825;SDS011;2427;50.934;6.776;2023-08-21T07:20:52;7.53;;;4.50;;
4825;SDS011;2427;50.934;6.776;2023-08-21T07:23:18;7.10;;;4.80;;
4825;SDS011;2427;50.934;6.776;2023-08-21T07:25:44;12.47;;;5.30;;
4825;SDS011;2427;50.934;6.776;2023-08-21T07:28:09;13.10;;;5.17;;
4825;SDS011;2427;50.934;6.776;2023-08-21T07:30:36;8.30;;;5.10;;
4825;SDS011;2427;50.934;6.776;2023-08-21T07:33:03;7.17;;;4.73;;
4825;SDS011;2427;50.934;6.776;2023-08-21T07:35:32;6.43;;;4.63;;
4825;SDS011;2427;50.934;6.776;2023-08-21T07:37:57;11.83;;;3.93;;
4825;SDS011;2427;50.934;6.776;2023-08-21T07:40:23;5.80;;;4.13;;
4825;SDS011;2427;50.934;6.776;2023-08-21T07:42:49;6.03;;;4.30;;
4825;SDS011;2427;50.934;6.776;2023-08-21T07:45:15;10.20;;;6.23;;
4825;SDS011;2427;50.934;6.776;2023-08-21T07:47:41;7.20;;;5.10;;
4825;SDS011;2427;50.934;6.776;2023-08-21T07:50:07;6.17;;;5.17;;
4825;SDS011;2427;50.934;6.776;2023-08-21T07:52:36;5.20;;;3.87;;
4825;SDS011;2427;50.934;6.776;2023-08-21T07:55:02;7.47;;;4.70;;
4825;SDS011;2427;50.934;6.776;2023-08-21T07:57:28;6.60;;;3.77;;
4825;SDS011;2427;50.934;6.776;2023-08-21T07:59:54;8.00;;;4.40;;
4825;SDS011;2427;50.934;6.776;2023-08-21T08:02:20;14.53;;;5.67;;
4825;SDS011;2427;50.934;6.776;2023-08-21T08:04:46;6.90;;;4.93;;
4825;SDS011;2427;50.934;6.776;2023-08-21T08:07:11;7.43;;;4.47;;
4825;SDS011;2427;50.934;6.776;2023-08-21T08:09:37;11.87;;;5.63;;
4825;SDS011;2427;50.934;6.776;2023-08-21T08:12:03;8.47;;;4.83;;
4825;SDS011;2427;50.934;6.776;2023-08-21T08:14:29;7.00;;;5.33;;
4825;SDS011;2427;50.934;6.776;2023-08-21T08:16:54;13.53;;;6.10;;
4825;SDS011;2427;50.934;6.776;2023-08-21T08:19:20;7.50;;;5.30;;
4825;SDS011;2427;50.934;6.776;2023-08-21T08:21:46;8.73;;;5.57;;
4825;SDS011;2427;50.934;6.776;2023-08-21T08:24:11;9.07;;;4.93;;
4825;SDS011;2427;50.934;6.776;2023-08-21T08:26:37;9.67;;;4.90;;
4825;SDS011;2427;50.934;6.776;2023-08-21T08:29:03;9.43;;;6.07;;
4825;SDS011;2427;50.934;6.776;2023-08-21T08:31:30;9.27;;;5.20;;
4825;SDS011;2427;50.934;6.776;2023-08-21T08:33:56;11.97;;;5.17;;
4825;SDS011;2427;50.934;6.776;2023-08-21T08:36:21;9.10;;;6.63;;
4825;SDS011;2427;50.934;6.776;2023-08-21T08:38:47;12.20;;;6.60;;
4825;SDS011;2427;50.934;6.776;2023-08-21T08:41:14;9.70;;;7.07;;
4825;SDS011;2427;50.934;6.776;2023-08-21T08:43:50;11.73;;;9.17;;
4825;SDS011;2427;50.934;6.776;2023-08-21T08:46:16;11.80;;;10.43;;
4825;SDS011;2427;50.934;6.776;2023-08-21T08:48:43;11.70;;;8.50;;
4825;SDS011;2427;50.934;6.776;2023-08-21T08:51:08;10.70;;;8.47;;
4825;SDS011;2427;50.934;6.776;2023-08-21T08:53:34;9.70;;;6.80;;
4825;SDS011;2427;50.934;6.776;2023-08-21T08:56:01;7.90;;;7.10;;
4825;SDS011;2427;50.934;6.776;2023-08-21T08:58:28;8.70;;;6.40;;
4825;SDS011;2427;50.934;6.776;2023-08-21T09:00:54;9.90;;;6.57;;
4825;SDS011;2427;50.934;6.776;2023-08-21T09:03:20;11.53;;;8.30;;
4825;SDS011;2427;50.934;6.776;2023-08-21T09:05:45;12.97;;;7.90;;
4825;SDS011;2427;50.934;6.776;2023-08-21T09:08:13;11.83;;;9.10;;
4825;SDS011;2427;50.934;6.776;2023-08-21T09:10:41;10.47;;;7.87;;
4825;SDS011;2427;50.934;6.776;2023-08-21T09:13:14;13.10;;;8.00;;
4825;SDS011;2427;50.934;6.776;2023-08-21T09:15:45;10.30;;;6.93;;
4825;SDS011;2427;50.934;6.776;2023-08-21T09:18:14;10.47;;;6.93;;
4825;SDS011;2427;50.934;6.776;2023-08-21T09:20:41;10.80;;;6.93;;
4825;SDS011;2427;50.934;6.776;2023-08-21T09:23:07;14.57;;;7.50;;
4825;SDS011;2427;50.934;6.776;2023-08-21T09:25:38;11.50;;;7.80;;
4825;SDS011;2427;50.934;6.776;2023-08-21T09:28:04;15.17;;;9.23;;
4825;SDS011;2427;50.934;6.776;2023-08-21T09:30:43;8.17;;;6.93;;
4825;SDS011;2427;50.934;6.776;2023-08-21T09:33:12;9.23;;;6.20;;
4825;SDS011;2427;50.934;6.776;2023-08-21T09:35:38;8.23;;;6.50;;
4825;SDS011;2427;50.934;6.776;2023-08-21T09:38:07;12.73;;;6.40;;
4825;SDS011;2427;50.934;6.776;2023-08-21T09:40:33;15.30;;;7.50;;
4825;SDS011;2427;50.934;6.776;2023-08-21T09:42:58;9.43;;;5.63;;
4825;SDS011;2427;50.934;6.776;2023-08-21T09:45:24;8.30;;;6.30;;
4825;SDS011;2427;50.934;6.776;2023-08-21T09:47:52;10.13;;;6.67;;
4825;SDS011;2427;50.934;6.776;2023-08-21T09:50:18;9.40;;;6.33;;
4825;SDS011;2427;50.934;6.776;2023-08-21T09:52:47;18.63;;;8.00;;
4825;SDS011;2427;50.934;6.776;2023-08-21T09:55:14;12.63;;;7.60;;
4825;SDS011;2427;50.934;6.776;2023-08-21T09:57:42;10.50;;;6.53;;
4825;SDS011;2427;50.934;6.776;2023-08-21T10:00:08;10.33;;;6.90;;
4825;SDS011;2427;50.934;6.776;2023-08-21T10:02:43;13.63;;;6.17;;
4825;SDS011;2427;50.934;6.776;2023-08-21T10:05:15;11.40;;;6.40;;
4825;SDS011;2427;50.934;6.776;2023-08-21T10:07:42;12.97;;;6.97;;
4825;SDS011;2427;50.934;6.776;2023-08-21T10:10:11;14.20;;;8.47;;
4825;SDS011;2427;50.934;6.776;2023-08-21T10:12:37;11.07;;;6.53;;
4825;SDS011;2427;50.934;6.776;2023-08-21T10:15:03;9.93;;;7.43;;
4825;SDS011;2427;50.934;6.776;2023-08-21T10:17:30;8.73;;;6.93;;
4825;SDS011;2427;50.934;6.776;2023-08-21T10:20:01;11.33;;;6.97;;
4825;SDS011;2427;50.934;6.776;2023-08-21T10:25:04;9.53;;;7.90;;
4825;SDS011;2427;50.934;6.776;2023-08-21T10:27:40;12.40;;;7.97;;
4825;SDS011;2427;50.934;6.776;2023-08-21T10:30:11;9.63;;;6.47;;
4825;SDS011;2427;50.934;6.776;2023-08-21T10:32:45;10.70;;;7.53;;
4825;SDS011;2427;50.934;6.776;2023-08-21T10:35:15;10.73;;;7.40;;
4825;SDS011;2427;50.934;6.776;2023-08-21T10:40:40;13.70;;;8.50;;
4825;SDS011;2427;50.934;6.776;2023-08-21T10:43:38;14.40;;;9.10;;
4825;SDS011;2427;50.934;6.776;2023-08-21T10:46:10;11.13;;;8.40;;
4825;SDS011;2427;50.934;6.776;2023-08-21T10:48:37;17.17;;;9.53;;
4825;SDS011;2427;50.934;6.776;2023-08-21T10:51:04;13.10;;;8.83;;
4825;SDS011;2427;50.934;6.776;2023-08-21T10:53:32;15.57;;;9.07;;
4825;SDS011;2427;50.934;6.776;2023-08-21T10:56:02;13.47;;;8.97;;
4825;SDS011;2427;50.934;6.776;2023-08-21T10:58:33;12.90;;;8.70;;
4825;SDS011;2427;50.934;6.776;2023-08-21T11:01:06;11.80;;;8.10;;
4825;SDS011;2427;50.934;6.776;2023-08-21T11:03:32;14.20;;;8.33;;
4825;SDS011;2427;50.934;6.776;2023-08-21T11:06:01;12.73;;;8.20;;
4825;SDS011;2427;50.934;6.776;2023-08-21T11:08:32;13.60;;;8.40;;
4825;SDS011;2427;50.934;6.776;2023-08-21T11:10:59;11.93;;;7.57;;
4825;SDS011;2427;50.934;6.776;2023-08-21T11:13:26;14.73;;;7.67;;
4825;SDS011;2427;50.934;6.776;2023-08-21T11:15:58;11.30;;;7.70;;
4825;SDS011;2427;50.934;6.776;2023-08-21T11:18:34;8.80;;;7.60;;
4825;SDS011;2427;50.934;6.776;2023-08-21T11:21:03;14.70;;;8.70;;
4825;SDS011;2427;50.934;6.776;2023-08-21T11:23:33;16.73;;;8.47;;
4825;SDS011;2427;50.934;6.776;2023-08-21T11:26:00;16.20;;;8.27;;
4825;SDS011;2427;50.934;6.776;2023-08-21T11:28:26;15.23;;;9.63;;
4825;SDS011;2427;50.934;6.776;2023-08-21T11:30:54;9.87;;;6.60;;
4825;SDS011;2427;50.934;6.776;2023-08-21T11:33:21;9.53;;;7.33;;
4825;SDS011;2427;50.934;6.776;2023-08-21T11:35:46;10.83;;;8.17;;
4825;SDS011;2427;50.934;6.776;2023-08-21T11:38:19;11.00;;;7.90;;
4825;SDS011;2427;50.934;6.776;2023-08-21T11:43:40;13.10;;;7.10;;
4825;SDS011;2427;50.934;6.776;2023-08-21T11:46:07;10.70;;;7.63;;
4825;SDS011;2427;50.934;6.776;2023-08-21T11:48:38;10.97;;;7.37;;
4825;SDS011;2427;50.934;6.776;2023-08-21T11:51:05;9.50;;;5.90;;
4825;SDS011;2427;50.934;6.776;2023-08-21T11:53:32;12.90;;;6.97;;
4825;SDS011;2427;50.934;6.776;2023-08-21T11:55:59;9.60;;;7.20;;
4825;SDS011;2427;50.934;6.776;2023-08-21T11:58:28;8.80;;;6.33;;
4825;SDS011;2427;50.934;6.776;2023-08-21T12:00:54;12.50;;;8.37;;
4825;SDS011;2427;50.934;6.776;2023-08-21T12:03:26;11.27;;;6.80;;
4825;SDS011;2427;50.934;6.776;2023-08-21T12:05:51;7.70;;;6.20;;
4825;SDS011;2427;50.934;6.776;2023-08-21T12:08:17;12.93;;;5.77;;
4825;SDS011;2427;50.934;6.776;2023-08-21T12:10:42;13.97;;;6.97;;
4825;SDS011;2427;50.934;6.776;2023-08-21T12:13:08;10.90;;;6.40;;
4825;SDS011;2427;50.934;6.776;2023-08-21T12:15:33;9.10;;;5.00;;
4825;SDS011;2427;50.934;6.776;2023-08-21T12:17:59;10.67;;;5.40;;
4825;SDS011;2427;50.934;6.776;2023-08-21T12:20:25;7.70;;;5.13;;
4825;SDS011;2427;50.934;6.776;2023-08-21T12:22:50;8.23;;;6.10;;
4825;SDS011;2427;50.934;6.776;2023-08-21T12:25:16;5.80;;;5.10;;
4825;SDS011;2427;50.934;6.776;2023-08-21T12:27:41;8.03;;;5.17;;
4825;SDS011;2427;50.934;6.776;2023-08-21T12:30:07;8.33;;;5.20;;
4825;SDS011;2427;50.934;6.776;2023-08-21T12:32:33;7.07;;;4.60;;
4825;SDS011;2427;50.934;6.776;2023-08-21T12:34:58;9.90;;;5.00;;
4825;SDS011;2427;50.934;6.776;2023-08-21T12:37:24;8.57;;;5.67;;
4825;SDS011;2427;50.934;6.776;2023-08-21T12:39:50;7.77;;;4.73;;
4825;SDS011;2427;50.934;6.776;2023-08-21T12:42:16;10.07;;;3.63;;
4825;SDS011;2427;50.934;6.776;2023-08-21T12:44:41;9.20;;;4.17;;
4825;SDS011;2427;50.934;6.776;2023-08-21T12:47:07;6.77;;;3.70;;
4825;SDS011;2427;50.934;6.776;2023-08-21T12:49:32;9.83;;;4.00;;
4825;SDS011;2427;50.934;6.776;2023-08-21T12:52:00;6.30;;;3.40;;
4825;SDS011;2427;50.934;6.776;2023-08-21T12:54:25;5.77;;;2.87;;
4825;SDS011;2427;50.934;6.776;2023-08-21T12:56:51;7.87;;;3.73;;
4825;SDS011;2427;50.934;6.776;2023-08-21T12:59:18;6.83;;;3.07;;
4825;SDS011;2427;50.934;6.776;2023-08-21T13:01:44;9.37;;;3.20;;
4825;SDS011;2427;50.934;6.776;2023-08-21T13:04:09;13.63;;;3.37;;
4825;SDS011;2427;50.934;6.776;2023-08-21T13:06:35;3.47;;;3.03;;
4825;SDS011;2427;50.934;6.776;2023-08-21T13:09:01;9.07;;;4.10;;
4825;SDS011;2427;50.934;6.776;2023-08-21T13:11:27;3.97;;;2.60;;
4825;SDS011;2427;50.934;6.776;2023-08-21T13:13:54;7.50;;;3.00;;
4825;SDS011;2427;50.934;6.776;2023-08-21T13:16:20;3.93;;;3.20;;
4825;SDS011;2427;50.934;6.776;2023-08-21T13:18:45;5.23;;;2.53;;
4825;SDS011;2427;50.934;6.776;2023-08-21T13:21:11;5.33;;;3.53;;
4825;SDS011;2427;50.934;6.776;2023-08-21T13:23:36;7.13;;;4.10;;
4825;SDS011;2427;50.934;6.776;2023-08-21T13:26:02;5.73;;;3.00;;
4825;SDS011;2427;50.934;6.776;2023-08-21T13:28:28;6.17;;;4.13;;
4825;SDS011;2427;50.934;6.776;2023-08-21T13:30:53;8.47;;;2.53;;
4825;SDS011;2427;50.934;6.776;2023-08-21T13:33:19;6.87;;;2.77;;
4825;SDS011;2427;50.934;6.776;2023-08-21T13:35:45;7.60;;;2.70;;
4825;SDS011;2427;50.934;6.776;2023-08-21T13:38:12;7.70;;;3.70;;
4825;SDS011;2427;50.934;6.776;2023-08-21T13:40:38;4.60;;;2.20;;
4825;SDS011;2427;50.934;6.776;2023-08-21T13:43:05;11.17;;;4.70;;
4825;SDS011;2427;50.934;6.776;2023-08-21T13:45:32;8.30;;;1.97;;
4825;SDS011;2427;50.934;6.776;2023-08-21T13:47:58;6.90;;;2.90;;
4825;SDS011;2427;50.934;6.776;2023-08-21T13:50:23;11.20;;;3.00;;
4825;SDS011;2427;50.934;6.776;2023-08-21T13:52:49;5.47;;;2.47;;
4825;SDS011;2427;50.934;6.776;2023-08-21T13:55:15;5.93;;;2.63;;
4825;SDS011;2427;50.934;6.776;2023-08-21T13:57:41;6.90;;;2.67;;
4825;SDS011;2427;50.934;6.776;2023-08-21T14:00:07;5.00;;;2.70;;
4825;SDS011;2427;50.934;6.776;2023-08-21T14:02:37;6.70;;;2.10;;
4825;SDS011;2427;50.934;6.776;2023-08-21T14:05:03;8.27;;;2.23;;
4825;SDS011;2427;50.934;6.776;2023-08-21T14:07:29;15.90;;;2.37;;
4825;SDS011;2427;50.934;6.776;2023-08-21T14:09:55;6.37;;;2.40;;
4825;SDS011;2427;50.934;6.776;2023-08-21T14:12:21;4.57;;;2.30;;
4825;SDS011;2427;50.934;6.776;2023-08-21T14:14:47;2.87;;;1.80;;
4825;SDS011;2427;50.934;6.776;2023-08-21T14:17:12;5.07;;;2.20;;
4825;SDS011;2427;50.934;6.776;2023-08-21T14:19:38;3.53;;;1.83;;
4825;SDS011;2427;50.934;6.776;2023-08-21T14:22:03;4.27;;;1.60;;
4825;SDS011;2427;50.934;6.776;2023-08-21T14:24:29;5.80;;;1.80;;
4825;SDS011;2427;50.934;6.776;2023-08-21T14:26:55;5.23;;;2.33;;
4825;SDS011;2427;50.934;6.776;2023-08-21T14:29:21;7.23;;;1.77;;
4825;SDS011;2427;50.934;6.776;2023-08-21T14:31:47;4.47;;;2.40;;
4825;SDS011;2427;50.934;6.776;2023-08-21T14:34:13;3.13;;;1.60;;
4825;SDS011;2427;50.934;6.776;2023-08-21T14:36:40;4.07;;;1.67;;
4825;SDS011;2427;50.934;6.776;2023-08-21T14:39:07;3.03;;;1.47;;
4825;SDS011;2427;50.934;6.776;2023-08-21T14:41:33;4.03;;;1.60;;
4825;SDS011;2427;50.934;6.776;2023-08-21T14:43:58;2.93;;;1.43;;
4825;SDS011;2427;50.934;6.776;2023-08-21T14:46:24;1.20;;;1.10;;
4825;SDS011;2427;50.934;6.776;2023-08-21T14:48:49;5.70;;;1.43;;
4825;SDS011;2427;50.934;6.776;2023-08-21T14:51:15;2.80;;;1.40;;
4825;SDS011;2427;50.934;6.776;2023-08-21T14:53:40;4.80;;;1.47;;
4825;SDS011;2427;50.934;6.776;2023-08-21T14:56:06;7.40;;;1.60;;
4825;SDS011;2427;50.934;6.776;2023-08-21T14:58:31;6.70;;;1.80;;
4825;SDS011;2427;50.934;6.776;2023-08-21T15:00:57;5.17;;;1.53;;
4825;SDS011;2427;50.934;6.776;2023-08-21T15:03:23;3.60;;;1.87;;
4825;SDS011;2427;50.934;6.776;2023-08-21T15:05:48;2.33;;;1.60;;
4825;SDS011;2427;50.934;6.776;2023-08-21T15:08:14;5.27;;;1.67;;
4825;SDS011;2427;50.934;6.776;2023-08-21T15:10:39;4.10;;;1.85;;
4825;SDS011;2427;50.934;6.776;2023-08-21T15:13:05;2.17;;;1.20;;
4825;SDS011;2427;50.934;6.776;2023-08-21T15:15:30;2.95;;;1.40;;
4825;SDS011;2427;50.934;6.776;2023-08-21T15:17:56;4.20;;;1.50;;
4825;SDS011;2427;50.934;6.776;2023-08-21T15:20:21;5.47;;;1.30;;
4825;SDS011;2427;50.934;6.776;2023-08-21T15:22:47;2.80;;;1.45;;
4825;SDS011;2427;50.934;6.776;2023-08-21T15:25:14;1.77;;;1.30;;
4825;SDS011;2427;50.934;6.776;2023-08-21T15:27:40;1.75;;;1.40;;
4825;SDS011;2427;50.934;6.776;2023-08-21T15:30:06;2.67;;;1.05;;